Terminal Aerodrome Forecast
Issued by NWS Wilmington, OH

Current Version | Previous Version | Text Only | Print | Product List | Glossary Off
Versions: 1 2 3 4 5 6 7 8 9 10 11 12 13 14 15 16 17 18 19 20 21 22 23 24 25 26 27

283
FTUS41 KILN 060523
TAFILN
TAF
KILN 060523Z 0606/0706 33005KT P6SM FEW080
     FM061400 34011KT P6SM FEW050
     FM070100 28003KT P6SM SKC=

USA.gov is the U.S. government's official web portal to all federal, state and local government web resources and services.